Time;durP1;ratioP1;P1;durP2;ratioP2;P2;SDS_P1;SDS_P2;PMS_P1;PMS_P2;Temp;Humidity;BMP_temperature;BMP_pressure;BME280_temperature;BME280_humidity;BME280_pressure;Samples;Min_cycle;Max_cycle;Signal;HPM_P1;HPM_P2
2021/07/20 00:00:42;;;;;;;0.10;0.10;;;;;;;28.41;45.73;99015.19;5052706;28;20216;-60
2021/07/20 00:03:10;;;;;;;0.10;0.10;;;;;;;28.39;45.67;99003.88;5051478;28;20124;-60
2021/07/20 00:05:38;;;;;;;0.10;0.10;;;;;;;28.40;45.72;99010.88;5052603;28;20045;-60
2021/07/20 00:08:05;;;;;;;0.00;0.00;;;;;;;28.36;45.76;99007.81;5052541;28;20407;-59
2021/07/20 00:11:01;;;;;;;0.10;0.10;;;;;;;28.40;45.78;99016.25;5051232;28;20053;-59
2021/07/20 00:13:27;;;;;;;0.28;0.28;;;;;;;28.39;45.85;99019.97;5035452;28;20136;-60
2021/07/20 00:15:55;;;;;;;0.38;0.25;;;;;;;28.40;46.03;99021.63;5052348;28;20053;-60
2021/07/20 00:18:23;;;;;;;0.10;0.10;;;;;;;28.39;45.94;99015.44;5051079;28;20076;-59
2021/07/20 00:20:50;;;;;;;0.00;0.00;;;;;;;28.38;46.10;99012.94;5052112;28;20099;-59
2021/07/20 00:23:17;;;;;;;0.10;0.10;;;;;;;28.37;45.95;99022.88;5052027;28;20099;-60
2021/07/20 00:25:43;;;;;;;0.10;0.10;;;;;;;28.34;46.09;99019.78;5050929;28;20059;-59
2021/07/20 00:28:09;;;;;;;0.10;0.10;;;;;;;28.36;46.00;99020.41;5052163;28;20041;-59
2021/07/20 00:30:35;;;;;;;0.10;0.10;;;;;;;28.27;46.21;99011.00;5052059;28;20049;-60
2021/07/20 00:33:01;;;;;;;0.30;0.30;;;;;;;28.36;46.04;99029.31;5034196;28;20090;-59
2021/07/20 00:35:27;;;;;;;0.00;0.00;;;;;;;28.36;45.99;99036.53;5050535;28;20057;-59
2021/07/20 00:37:53;;;;;;;0.68;0.50;;;;;;;28.30;46.29;99022.13;5051777;28;20045;-59
2021/07/20 00:40:20;;;;;;;0.10;0.10;;;;;;;28.33;46.26;99039.66;5050648;28;20140;-59
2021/07/20 00:42:48;;;;;;;0.05;0.05;;;;;;;28.32;46.33;99029.94;5050567;28;20373;-59
2021/07/20 00:45:16;;;;;;;0.08;0.08;;;;;;;28.32;46.03;99038.81;5051879;28;20068;-60
2021/07/20 00:47:44;;;;;;;0.10;0.10;;;;;;;28.32;46.08;99029.94;5051820;28;20053;-59
2021/07/20 00:50:11;;;;;;;0.25;0.25;;;;;;;28.30;46.26;99024.81;5050525;28;20533;-59
2021/07/20 00:52:39;;;;;;;0.30;0.30;;;;;;;28.30;46.46;99021.28;5033781;28;20049;-60
2021/07/20 00:55:06;;;;;;;0.10;0.10;;;;;;;28.30;46.21;99021.28;5033900;28;20056;-60
2021/07/20 00:57:32;;;;;;;0.10;0.10;;;;;;;28.29;46.20;99020.47;5033722;28;20537;-59
2021/07/20 00:59:58;;;;;;;0.15;0.15;;;;;;;28.25;46.24;99013.88;5051641;28;20140;-60
2021/07/20 01:02:26;;;;;;;0.10;0.10;;;;;;;28.28;46.32;99018.81;5017061;28;20052;-60
2021/07/20 01:04:53;;;;;;;0.10;0.10;;;;;;;28.27;46.39;99017.16;5050231;28;20063;-60
2021/07/20 01:07:21;;;;;;;0.10;0.10;;;;;;;28.29;46.16;99008.91;5033365;28;20053;-60
2021/07/20 01:09:48;;;;;;;0.10;0.10;;;;;;;28.25;46.34;99013.88;5032819;28;20080;-60
2021/07/20 01:12:15;;;;;;;0.20;0.20;;;;;;;28.30;46.56;99013.25;5050119;28;20415;-60
2021/07/20 01:14:47;;;;;;;0.00;0.00;;;;;;;28.28;46.26;99007.25;5033663;28;20055;-59
2021/07/20 01:17:14;;;;;;;0.25;0.25;;;;;;;28.31;46.48;99001.44;5033653;28;20510;-59
2021/07/20 01:19:50;;;;;;;0.10;0.10;;;;;;;28.26;46.43;99003.97;5033557;28;20059;-59
2021/07/20 01:22:19;;;;;;;0.10;0.10;;;;;;;28.31;46.33;99013.00;5050002;28;20552;-59
2021/07/20 01:24:45;;;;;;;0.10;0.10;;;;;;;28.31;46.38;99007.63;5033704;28;20060;-59
2021/07/20 01:27:12;;;;;;;0.05;0.05;;;;;;;28.30;46.57;98999.81;5017113;28;20045;-59
2021/07/20 01:29:40;;;;;;;0.20;0.20;;;;;;;28.29;46.29;98998.97;5049750;28;20044;-59
2021/07/20 01:32:08;;;;;;;0.10;0.10;;;;;;;28.20;46.22;98978.00;5049583;28;20064;-58
2021/07/20 01:34:35;;;;;;;0.10;0.10;;;;;;;28.31;46.33;98996.06;5000324;28;20072;-58
2021/07/20 01:37:02;;;;;;;0.10;0.10;;;;;;;28.29;46.19;98993.63;5049468;28;20460;-58
2021/07/20 01:39:31;;;;;;;0.33;0.33;;;;;;;28.32;46.32;98997.72;5032898;28;20052;-58
2021/07/20 01:41:58;;;;;;;0.15;0.15;;;;;;;28.33;46.26;98994.00;5049553;28;20646;-59
2021/07/20 01:44:24;;;;;;;0.10;0.10;;;;;;;28.30;46.32;98994.44;5016068;28;20060;-59
2021/07/20 01:46:52;;;;;;;0.00;0.00;;;;;;;28.35;46.11;99002.66;5033208;28;20425;-59
2021/07/20 01:49:18;;;;;;;0.20;0.20;;;;;;;28.25;46.06;98981.66;5016439;28;20075;-59
2021/07/20 01:51:49;;;;;;;0.15;0.15;;;;;;;28.37;46.25;99000.59;5049486;28;20131;-59
2021/07/20 01:54:18;;;;;;;0.10;0.10;;;;;;;28.34;46.45;98992.94;5033377;28;20453;-59
2021/07/20 01:56:46;;;;;;;0.10;0.10;;;;;;;28.39;46.23;98990.44;5050273;28;20049;-59
2021/07/20 01:59:13;;;;;;;0.00;0.00;;;;;;;28.40;46.18;98984.81;5016343;28;20044;-58
2021/07/20 02:02:11;;;;;;;0.15;0.15;;;;;;;28.47;46.08;99000.88;5050462;28;20052;-59
2021/07/20 02:10:13;;;;;;;0.10;0.10;;;;;;;28.64;45.47;99001.16;5061558;28;20089;-59
2021/07/20 02:13:01;;;;;;;0.20;0.20;;;;;;;28.85;45.33;98998.91;5035211;28;20048;-58
2021/07/20 02:15:46;;;;;;;0.10;0.10;;;;;;;29.34;44.05;98997.97;5035404;28;20072;-59
2021/07/20 02:18:27;;;;;;;0.10;0.10;;;;;;;29.68;43.17;98996.47;5033920;28;20049;-58
2021/07/20 02:20:54;;;;;;;0.10;0.10;;;;;;;30.07;42.15;98997.00;5048791;28;20041;-58
2021/07/20 02:23:32;;;;;;;0.20;0.20;;;;;;;30.53;41.08;99002.47;5032050;28;20056;-58
2021/07/20 02:25:58;;;;;;;0.10;0.10;;;;;;;30.83;40.57;99003.19;5032375;28;20079;-58
2021/07/20 02:28:26;;;;;;;0.47;0.25;;;;;;;31.16;39.79;99001.78;5031871;28;20056;-58
2021/07/20 02:30:53;;;;;;;0.20;0.20;;;;;;;31.37;39.62;98993.88;5032241;28;20084;-59
2021/07/20 02:33:20;;;;;;;0.20;0.20;;;;;;;31.64;39.08;99004.97;5032116;28;20533;-59
2021/07/20 02:35:47;;;;;;;0.10;0.10;;;;;;;31.81;38.43;98996.88;5015805;28;20076;-59
2021/07/20 02:38:26;;;;;;;0.20;0.20;;;;;;;32.08;38.20;99007.94;5031849;28;20044;-59
2021/07/20 02:40:53;;;;;;;0.40;0.40;;;;;;;32.29;37.97;99015.34;5032129;28;20457;-59
2021/07/20 02:43:19;;;;;;;0.20;0.20;;;;;;;32.50;37.57;99025.41;5031982;28;20053;-58
2021/07/20 02:45:45;;;;;;;0.10;0.10;;;;;;;32.66;37.42;99013.00;5031783;28;20055;-58
2021/07/20 02:48:12;;;;;;;0.10;0.10;;;;;;;32.77;37.03;99012.91;5031675;28;20049;-58
2021/07/20 02:50:40;;;;;;;0.10;0.10;;;;;;;32.86;36.56;99011.41;5031707;28;20041;-58
2021/07/20 02:53:27;;;;;;;0.10;0.10;;;;;;;32.92;36.22;99017.69;5034100;28;20118;-58
2021/07/20 02:56:04;;;;;;;0.20;0.20;;;;;;;32.97;36.66;99005.06;5049574;28;20052;-59
2021/07/20 02:58:37;;;;;;;0.22;0.22;;;;;;;33.29;35.87;99004.44;5048197;28;20049;-58
2021/07/20 03:01:05;;;;;;;0.10;0.10;;;;;;;33.45;35.59;99004.38;5031797;28;20051;-59
2021/07/20 03:03:31;;;;;;;0.30;0.30;;;;;;;33.68;34.84;99002.47;5031575;28;20510;-59
2021/07/20 03:05:59;;;;;;;0.10;0.10;;;;;;;33.94;34.20;98994.34;5048306;28;20474;-59
2021/07/20 03:08:30;;;;;;;0.63;0.63;;;;;;;34.17;33.76;99004.09;5048901;28;20050;-59
2021/07/20 03:11:10;;;;;;;0.10;0.10;;;;;;;34.13;34.02;99000.25;5017337;28;20400;-59
2021/07/20 03:13:43;;;;;;;0.20;0.20;;;;;;;34.08;34.15;99007.50;5031357;28;20139;-59
2021/07/20 03:16:10;;;;;;;0.10;0.10;;;;;;;34.17;33.86;98992.41;5015645;28;20510;-59
2021/07/20 03:18:38;;;;;;;0.20;0.20;;;;;;;34.30;33.74;98994.69;5049049;28;20053;-59
2021/07/20 03:21:05;;;;;;;0.20;0.20;;;;;;;34.37;33.50;98988.00;5031745;28;20048;-59
2021/07/20 03:23:32;;;;;;;0.20;0.20;;;;;;;34.52;33.12;98990.00;5047733;28;20049;-59
2021/07/20 03:25:58;;;;;;;0.10;0.10;;;;;;;34.76;33.05;98999.41;5015301;28;20057;-59
2021/07/20 03:28:27;;;;;;;0.10;0.10;;;;;;;34.88;32.48;98997.31;5031508;28;20043;-58
2021/07/20 03:30:53;;;;;;;0.22;0.22;;;;;;;35.08;32.36;98993.09;5031718;28;20127;-58
2021/07/20 03:33:23;;;;;;;0.15;0.15;;;;;;;35.28;31.86;99004.06;5018089;28;20056;-59
2021/07/20 03:35:56;;;;;;;0.20;0.20;;;;;;;35.46;31.71;99009.84;5051833;28;20310;-58
2021/07/20 03:38:23;;;;;;;0.32;0.32;;;;;;;35.55;31.63;98996.56;5035297;28;20064;-58
2021/07/20 03:40:57;;;;;;;0.35;0.32;;;;;;;35.74;31.17;99005.88;5052066;28;20115;-59
2021/07/20 03:43:25;;;;;;;0.10;0.10;;;;;;;35.71;31.10;98998.25;5035047;28;20045;-58
2021/07/20 03:45:52;;;;;;;0.20;0.20;;;;;;;35.82;30.83;99010.81;5053005;28;20055;-58
2021/07/20 03:48:19;;;;;;;0.20;0.20;;;;;;;35.94;30.83;99015.97;5018546;28;20049;-59
2021/07/20 03:50:52;;;;;;;0.30;0.30;;;;;;;36.12;30.39;99014.69;5019252;28;20084;-59
2021/07/20 03:53:18;;;;;;;0.40;0.40;;;;;;;36.23;30.14;99013.59;5052643;28;20510;-58
2021/07/20 03:55:50;;;;;;;0.30;0.30;;;;;;;36.31;29.98;99019.31;5052657;28;20133;-58
2021/07/20 03:58:17;;;;;;;0.10;0.10;;;;;;;36.40;29.64;99019.56;5051478;28;20118;-59
2021/07/20 04:00:49;;;;;;;0.20;0.20;;;;;;;36.45;29.73;99017.66;5002309;28;20095;-59
2021/07/20 04:03:23;;;;;;;0.35;0.35;;;;;;;36.48;29.88;99019.03;5051342;28;20514;-58
2021/07/20 04:06:10;;;;;;;0.20;0.20;;;;;;;36.58;29.36;99018.25;5038227;28;20102;-59
2021/07/20 04:08:51;;;;;;;0.30;0.30;;;;;;;36.54;29.40;99023.41;5054495;28;20478;-59
2021/07/20 04:11:19;;;;;;;0.20;0.20;;;;;;;36.70;29.43;99026.94;5052581;28;20057;-59
2021/07/20 04:13:52;;;;;;;0.10;0.10;;;;;;;36.78;28.85;99032.63;5018727;28;20049;-58
2021/07/20 04:16:47;;;;;;;0.10;0.10;;;;;;;36.87;29.05;99028.28;5027482;28;20061;-58
2021/07/20 04:19:15;;;;;;;0.20;0.20;;;;;;;36.82;28.88;99031.00;5034902;28;20048;-58
2021/07/20 04:22:02;;;;;;;0.35;0.35;;;;;;;36.92;28.64;99038.31;5034085;28;20079;-58
2021/07/20 04:24:29;;;;;;;0.17;0.17;;;;;;;37.04;28.21;99034.25;5034564;28;20056;-58
2021/07/20 04:26:57;;;;;;;0.45;0.45;;;;;;;37.10;28.23;99032.34;5034614;28;20049;-58
2021/07/20 04:29:23;;;;;;;0.10;0.10;;;;;;;37.25;28.22;99043.16;5017706;28;20079;-59
2021/07/20 04:31:52;;;;;;;0.50;0.50;;;;;;;37.37;27.76;99037.44;5001428;28;20582;-59
2021/07/20 04:34:18;;;;;;;0.30;0.30;;;;;;;37.42;27.99;99030.03;5017893;28;20122;-58
2021/07/20 04:37:06;;;;;;;0.20;0.20;;;;;;;37.59;27.54;99043.34;5051943;28;20564;-58
2021/07/20 04:39:37;;;;;;;0.17;0.17;;;;;;;37.72;27.06;99050.91;5034215;28;20061;-59
2021/07/20 04:42:06;;;;;;;0.20;0.20;;;;;;;37.77;27.08;99053.59;5050767;28;20059;-59
2021/07/20 04:44:32;;;;;;;0.30;0.30;;;;;;;37.77;27.29;99048.16;5049336;28;20068;-59
2021/07/20 04:47:13;;;;;;;0.30;0.30;;;;;;;37.83;27.24;99060.66;5034175;28;20049;-59
2021/07/20 04:49:43;;;;;;;0.65;0.65;;;;;;;37.86;26.78;99051.91;5050469;28;20468;-59
2021/07/20 04:52:09;;;;;;;0.80;0.80;;;;;;;37.99;26.62;99055.97;5050429;28;20049;-59
2021/07/20 04:54:38;;;;;;;0.10;0.10;;;;;;;37.96;26.93;99062.78;5050267;28;20453;-59
2021/07/20 04:57:04;;;;;;;0.20;0.20;;;;;;;38.02;26.87;99055.41;5033777;28;20099;-59
2021/07/20 04:59:32;;;;;;;0.20;0.20;;;;;;;38.04;26.82;99055.94;5033811;28;20506;-60
2021/07/20 05:02:00;;;;;;;0.15;0.15;;;;;;;38.14;26.61;99052.31;5034056;28;20425;-59
2021/07/20 05:04:32;;;;;;;0.20;0.20;;;;;;;38.04;26.44;99045.84;5034517;28;20338;-59
2021/07/20 05:06:58;;;;;;;0.10;0.10;;;;;;;37.30;27.40;99053.25;5033727;28;20044;-58
2021/07/20 05:09:25;;;;;;;0.15;0.15;;;;;;;36.95;28.06;99051.38;5022070;28;20053;-57
2021/07/20 05:11:52;;;;;;;0.10;0.10;;;;;;;37.01;27.78;99050.34;5013670;28;20049;-58
2021/07/20 05:14:19;;;;;;;0.10;0.10;;;;;;;36.61;28.30;99062.06;4981880;28;20059;-59
2021/07/20 05:16:48;;;;;;;0.30;0.30;;;;;;;36.56;28.63;99062.03;4996992;28;20099;-58
2021/07/20 05:19:14;;;;;;;0.10;0.10;;;;;;;36.34;28.79;99056.03;5013726;28;20064;-59
2021/07/20 05:21:57;;;;;;;0.43;0.43;;;;;;;36.70;28.23;99070.47;5013279;28;20052;-58
2021/07/20 05:24:33;;;;;;;0.50;0.43;;;;;;;36.94;27.76;99064.19;5029959;28;20053;-58
2021/07/20 05:27:02;;;;;;;0.13;0.13;;;;;;;37.01;27.61;99066.69;5013889;28;20057;-58
2021/07/20 05:29:30;;;;;;;0.22;0.22;;;;;;;37.13;27.49;99058.19;5013519;28;20053;-58
2021/07/20 05:31:59;;;;;;;;;;;;;;;37.30;27.09;99075.84;5013779;28;20088;-58
2021/07/20 05:34:27;;;;;;;0.10;0.10;;;;;;;36.94;28.03;99074.28;5013886;28;19921;-58
2021/07/20 05:36:54;;;;;;;0.73;0.73;;;;;;;37.01;27.80;99072.91;5012741;28;20475;-58
2021/07/20 05:39:20;;;;;;;0.10;0.10;;;;;;;36.76;28.12;99075.63;5013275;28;20053;-59
2021/07/20 05:42:24;;;;;;;0.10;0.10;;;;;;;36.86;27.71;99069.38;5023649;28;20123;-59
2021/07/20 05:44:52;;;;;;;0.40;0.40;;;;;;;37.26;27.56;99079.41;4996754;28;20053;-57
2021/07/20 05:47:18;;;;;;;0.20;0.20;;;;;;;37.36;27.44;99074.75;4996982;28;20064;-58
2021/07/20 05:49:45;;;;;;;0.25;0.25;;;;;;;37.39;26.73;99073.38;4980977;28;20128;-59
2021/07/20 05:52:15;;;;;;;0.55;0.55;;;;;;;37.14;27.33;99066.06;5029418;28;20068;-58
2021/07/20 05:54:45;;;;;;;0.38;0.38;;;;;;;37.36;26.70;99069.28;5029339;28;20594;-59
2021/07/20 05:57:15;;;;;;;0.30;0.30;;;;;;;37.48;26.74;99072.53;5012681;28;20049;-58
2021/07/20 05:59:47;;;;;;;0.20;0.20;;;;;;;37.71;26.73;99076.53;5029190;28;20045;-59
2021/07/20 06:02:18;;;;;;;0.10;0.10;;;;;;;37.86;26.36;99070.19;4981840;28;20127;-59
2021/07/20 06:04:46;;;;;;;0.40;0.40;;;;;;;37.94;25.97;99075.09;5012918;28;20085;-57
2021/07/20 06:07:12;;;;;;;0.20;0.20;;;;;;;37.97;25.87;99069.06;5012794;28;20053;-58
2021/07/20 06:09:40;;;;;;;0.20;0.20;;;;;;;38.01;25.63;99079.13;4993841;28;20049;-58
2021/07/20 06:12:08;;;;;;;0.28;0.28;;;;;;;38.10;25.57;99078.53;5032416;28;20057;-58
2021/07/20 06:14:35;;;;;;;0.10;0.10;;;;;;;38.15;25.54;99075.78;5016366;28;20053;-58
2021/07/20 06:17:01;;;;;;;0.17;0.17;;;;;;;38.23;25.37;99072.44;5050041;28;20052;-59
2021/07/20 06:19:27;;;;;;;0.30;0.30;;;;;;;38.21;25.35;99074.66;5032494;28;20057;-59
2021/07/20 06:21:53;;;;;;;0.10;0.10;;;;;;;38.23;25.40;99075.16;5032094;28;20107;-59
2021/07/20 06:24:23;;;;;;;0.20;0.20;;;;;;;38.37;25.48;99079.75;5032687;28;20095;-59
2021/07/20 06:26:49;;;;;;;0.10;0.10;;;;;;;38.48;24.86;99075.03;5049946;28;20052;-57
2021/07/20 06:29:15;;;;;;;0.20;0.20;;;;;;;38.66;24.74;99081.69;5049773;28;20041;-58
2021/07/20 06:31:42;;;;;;;0.20;0.20;;;;;;;39.32;23.91;99080.00;5048394;28;20060;-58
2021/07/20 06:34:08;;;;;;;0.40;0.40;;;;;;;41.41;21.07;99066.41;5032103;28;20422;-59
2021/07/20 06:36:35;;;;;;;0.60;0.60;;;;;;;45.55;16.62;99071.09;5049856;28;20052;-58
2021/07/20 06:39:05;;;;;;;0.60;0.60;;;;;;;48.65;13.90;99078.59;5049524;28;20044;-59
2021/07/20 06:41:34;;;;;;;;;;;;;;;49.77;12.88;99080.69;5050399;28;20139;-59
2021/07/20 06:44:01;;;;;;;0.40;0.40;;;;;;;50.17;12.40;99074.00;5049425;28;19931;-59
2021/07/20 06:46:29;;;;;;;0.50;0.50;;;;;;;50.90;11.87;99073.88;5049838;28;20140;-58
2021/07/20 06:48:55;;;;;;;0.47;0.47;;;;;;;51.48;11.08;99074.47;5049384;28;20191;-58
2021/07/20 06:51:21;;;;;;;0.50;0.50;;;;;;;51.67;10.85;99054.91;5065145;28;20057;-59
2021/07/20 06:53:50;;;;;;;0.57;0.57;;;;;;;51.65;10.86;99062.78;5049366;28;20053;-58
2021/07/20 06:56:38;;;;;;;0.30;0.30;;;;;;;51.41;10.97;99082.75;5049666;28;20049;-59
2021/07/20 06:59:05;;;;;;;0.32;0.30;;;;;;;50.05;11.82;99064.66;5031902;28;20080;-59
2021/07/20 07:01:32;;;;;;;0.20;0.20;;;;;;;46.61;14.31;99065.28;5048359;28;20135;-58
2021/07/20 07:04:17;;;;;;;0.30;0.30;;;;;;;43.40;17.33;99072.38;5031420;28;20056;-59
2021/07/20 07:06:44;;;;;;;0.57;0.57;;;;;;;41.49;19.30;99068.41;5031434;28;20048;-59
2021/07/20 07:09:10;;;;;;;0.10;0.10;;;;;;;40.39;20.58;99071.19;5021632;28;20741;-59
2021/07/20 07:11:38;;;;;;;0.20;0.20;;;;;;;39.60;21.59;99070.09;5012037;28;20195;-59
2021/07/20 07:14:04;;;;;;;0.17;0.17;;;;;;;38.96;22.44;99052.22;4995741;28;20045;-59
2021/07/20 07:16:30;;;;;;;0.10;0.10;;;;;;;38.59;22.44;99068.38;5029651;28;20061;-58
2021/07/20 07:18:56;;;;;;;0.32;0.32;;;;;;;38.29;23.04;99072.13;5011544;28;20064;-58
2021/07/20 07:21:23;;;;;;;0.20;0.20;;;;;;;38.09;23.51;99066.00;5011811;28;20049;-58
2021/07/20 07:23:51;;;;;;;0.20;0.20;;;;;;;37.87;23.71;99053.56;5027832;28;20203;-58
2021/07/20 07:26:18;;;;;;;0.10;0.10;;;;;;;37.68;23.68;99068.91;5012030;28;20140;-59
2021/07/20 07:28:48;;;;;;;0.10;0.10;;;;;;;37.50;24.05;99061.38;5011788;28;20068;-59
2021/07/20 07:31:15;;;;;;;0.20;0.20;;;;;;;37.33;24.06;99063.59;4996207;28;20045;-59
2021/07/20 07:33:41;;;;;;;0.40;0.40;;;;;;;37.25;24.19;99075.03;5011720;28;20537;-60
2021/07/20 07:36:09;;;;;;;0.10;0.10;;;;;;;37.19;24.14;99073.44;5029343;28;20054;-59
2021/07/20 07:38:35;;;;;;;0.15;0.15;;;;;;;37.09;24.00;99079.72;4995764;28;20057;-58
2021/07/20 07:41:01;;;;;;;0.10;0.10;;;;;;;36.96;24.27;99078.34;5027799;28;20057;-58
2021/07/20 07:43:27;;;;;;;0.20;0.20;;;;;;;36.84;24.40;99071.56;5028998;28;20052;-59
2021/07/20 07:45:57;;;;;;;0.20;0.20;;;;;;;36.64;24.34;99049.81;5029072;28;20049;-59
2021/07/20 07:48:23;;;;;;;0.10;0.10;;;;;;;36.62;24.39;99080.00;5011585;28;20122;-59
2021/07/20 07:50:49;;;;;;;0.10;0.10;;;;;;;36.51;24.17;99070.19;5011402;28;20132;-59
2021/07/20 07:53:15;;;;;;;0.08;0.08;;;;;;;36.40;24.25;99068.53;5011360;28;20057;-59
2021/07/20 07:55:42;;;;;;;0.10;0.10;;;;;;;36.37;24.10;99077.25;4995278;28;20212;-59
2021/07/20 07:58:11;;;;;;;0.28;0.28;;;;;;;36.28;23.78;99076.16;5029168;28;20138;-59
2021/07/20 08:00:36;;;;;;;0.20;0.20;;;;;;;36.17;24.00;99082.66;5011814;28;20041;-58
2021/07/20 08:03:03;;;;;;;0.20;0.20;;;;;;;36.08;24.13;99078.84;5011191;28;20478;-58
2021/07/20 08:05:29;;;;;;;0.32;0.32;;;;;;;36.01;24.21;99082.59;5011479;28;20053;-58
2021/07/20 08:07:55;;;;;;;0.10;0.10;;;;;;;35.89;24.30;99082.03;5028692;28;20514;-59
2021/07/20 08:10:22;;;;;;;0.10;0.10;;;;;;;35.85;24.29;99086.34;5048300;28;20138;-59
2021/07/20 08:12:48;;;;;;;0.17;0.17;;;;;;;35.72;24.17;99086.84;5014578;28;20087;-59
2021/07/20 08:15:14;;;;;;;0.20;0.20;;;;;;;35.63;23.93;99093.88;5047546;28;20572;-59
2021/07/20 08:17:40;;;;;;;0.10;0.10;;;;;;;35.46;24.09;99083.19;5030998;28;20140;-58
2021/07/20 08:20:07;;;;;;;0.10;0.10;;;;;;;35.40;24.12;99075.28;5033682;28;20049;-58
2021/07/20 08:22:34;;;;;;;0.20;0.20;;;;;;;35.28;24.16;99080.09;5052130;28;20418;-59
2021/07/20 08:25:13;;;;;;;0.10;0.10;;;;;;;35.23;24.11;99088.22;5051904;28;20053;-59
2021/07/20 08:27:44;;;;;;;;;;;;;;;35.16;24.22;99087.63;5052736;28;20071;-59
2021/07/20 08:30:10;;;;;;;0.10;0.10;;;;;;;35.08;24.08;99085.38;5034499;28;20088;-59
2021/07/20 08:32:44;;;;;;;0.00;0.00;;;;;;;35.00;24.16;99079.38;5034443;28;20511;-58
2021/07/20 08:35:14;;;;;;;0.10;0.10;;;;;;;34.92;24.05;99073.59;5052091;28;20052;-58
2021/07/20 08:37:40;;;;;;;0.30;0.30;;;;;;;34.81;24.25;99070.00;5050763;28;20598;-58
2021/07/20 08:40:42;;;;;;;0.00;0.00;;;;;;;34.72;24.43;99076.97;5034132;28;20303;-59
2021/07/20 08:43:55;;;;;;;0.00;0.00;;;;;;;34.60;24.42;99087.16;5035893;28;20506;-59
2021/07/20 08:46:31;;;;;;;0.05;0.05;;;;;;;34.48;24.67;99084.63;5030040;28;20481;-57
2021/07/20 08:49:06;;;;;;;0.15;0.15;;;;;;;34.45;24.50;99087.03;5048617;28;20140;-57
2021/07/20 08:51:50;;;;;;;0.10;0.10;;;;;;;34.34;24.68;99074.44;5050875;28;20052;-58
2021/07/20 08:54:24;;;;;;;0.10;0.10;;;;;;;34.29;24.62;99077.13;5052202;28;20433;-58
2021/07/20 08:56:50;;;;;;;0.28;0.28;;;;;;;34.21;24.78;99083.00;5034826;28;20056;-59
2021/07/20 08:59:22;;;;;;;0.00;0.00;;;;;;;34.17;24.49;99071.03;5017622;28;20099;-59
2021/07/20 09:02:26;;;;;;;0.10;0.10;;;;;;;34.13;24.52;99086.19;5034325;28;20098;-58
2021/07/20 09:05:06;;;;;;;0.20;0.20;;;;;;;34.05;24.63;99092.84;4970097;28;20054;-57
2021/07/20 09:07:42;;;;;;;;;;;;;;;33.97;24.96;99083.25;5028686;28;20140;-58
2021/07/20 09:10:11;;;;;;;0.30;0.30;;;;;;;33.87;24.77;99079.63;5051027;28;19920;-56
2021/07/20 09:12:39;;;;;;;0.00;0.00;;;;;;;33.79;25.31;99083.63;5051390;28;20057;-57
2021/07/20 09:15:12;;;;;;;0.10;0.10;;;;;;;33.77;25.14;99091.16;5049899;28;20505;-59
2021/07/20 09:18:23;;;;;;;0.10;0.10;;;;;;;33.70;25.02;99089.72;5050087;28;20315;-58
2021/07/20 09:20:52;;;;;;;0.10;0.10;;;;;;;33.62;25.47;99082.84;5050959;28;20102;-57
2021/07/20 09:23:21;;;;;;;0.20;0.20;;;;;;;33.60;25.20;99084.16;5051091;28;20183;-57
2021/07/20 09:26:08;;;;;;;0.00;0.00;;;;;;;33.55;25.50;99082.19;5033585;28;20056;-60
2021/07/20 09:28:46;;;;;;;0.30;0.30;;;;;;;33.47;25.47;99069.94;5050943;28;20079;-58
2021/07/20 09:31:37;;;;;;;0.10;0.10;;;;;;;33.46;25.21;99081.00;5048818;28;20088;-57
2021/07/20 09:34:12;;;;;;;0.10;0.10;;;;;;;33.41;25.54;99076.31;5035588;28;20049;-57
2021/07/20 09:36:41;;;;;;;0.20;0.20;;;;;;;33.36;25.46;99075.44;5050928;28;20055;-57
2021/07/20 09:39:18;;;;;;;0.22;0.22;;;;;;;33.36;25.88;99081.69;5050422;28;20502;-57
2021/07/20 09:41:49;;;;;;;0.00;0.00;;;;;;;33.33;25.77;99070.53;5050867;28;20427;-58
2021/07/20 09:44:43;;;;;;;0.10;0.10;;;;;;;33.33;25.53;99089.47;5033280;28;20049;-54
2021/07/20 09:47:24;;;;;;;0.43;0.43;;;;;;;33.28;25.77;99081.31;5050574;28;20057;-57
2021/07/20 09:49:56;;;;;;;1.80;0.45;;;;;;;33.30;25.75;99081.88;5017734;28;20179;-59
2021/07/20 09:52:36;;;;;;;0.10;0.10;;;;;;;33.25;25.88;99084.47;5050637;28;20075;-58
2021/07/20 09:55:41;;;;;;;0.10;0.10;;;;;;;33.24;25.97;99086.41;5033208;28;20506;-58
2021/07/20 09:58:29;;;;;;;0.10;0.10;;;;;;;33.23;25.67;99079.34;5032524;28;20581;-58
2021/07/20 10:00:58;;;;;;;0.20;0.20;;;;;;;33.22;25.88;99080.41;5032426;28;20422;-58
2021/07/20 10:03:30;;;;;;;0.10;0.10;;;;;;;33.16;25.95;99072.47;5050346;28;20057;-57
2021/07/20 10:06:04;;;;;;;0.08;0.08;;;;;;;33.22;26.38;99076.88;5032984;28;20080;-58
2021/07/20 10:08:42;;;;;;;0.00;0.00;;;;;;;33.18;25.98;99084.66;5032898;28;20564;-58
2021/07/20 10:11:15;;;;;;;0.15;0.15;;;;;;;33.15;26.09;99078.97;5032260;28;20053;-58
2021/07/20 10:14:01;;;;;;;0.52;0.52;;;;;;;33.14;26.09;99070.00;5032453;28;20053;-57
2021/07/20 10:16:49;;;;;;;0.30;0.30;;;;;;;33.15;25.85;99065.44;5032394;28;20483;-58
2021/07/20 10:19:31;;;;;;;0.10;0.10;;;;;;;33.16;25.86;99089.50;5049754;28;20048;-58
2021/07/20 10:21:57;;;;;;;0.10;0.10;;;;;;;33.14;25.60;99077.31;5050064;28;20056;-59
2021/07/20 10:24:25;;;;;;;0.10;0.10;;;;;;;33.09;25.58;99077.19;5048674;28;20052;-59
2021/07/20 10:26:58;;;;;;;0.20;0.20;;;;;;;33.18;25.32;99081.16;5048459;28;20045;-59
2021/07/20 10:29:44;;;;;;;0.10;0.10;;;;;;;33.18;25.58;99081.16;5032083;28;20041;-59
2021/07/20 10:32:27;;;;;;;0.30;0.30;;;;;;;33.17;25.63;99079.50;5049273;28;20092;-58
2021/07/20 10:34:56;;;;;;;0.10;0.10;;;;;;;33.14;25.22;99075.44;5048316;28;20052;-58
2021/07/20 10:37:24;;;;;;;0.00;0.00;;;;;;;33.13;25.81;99081.91;5031884;28;20498;-58
2021/07/20 10:39:54;;;;;;;0.08;0.08;;;;;;;33.11;25.69;99075.09;5031858;28;20474;-58
2021/07/20 10:42:26;;;;;;;0.10;0.10;;;;;;;33.11;25.27;99080.50;5047548;28;20506;-58
2021/07/20 10:45:25;;;;;;;0.10;0.10;;;;;;;33.08;25.81;99072.88;5047981;28;20124;-59
2021/07/20 10:48:07;;;;;;;0.03;0.03;;;;;;;33.09;25.76;99071.78;4999227;28;20051;-57
2021/07/20 10:50:52;;;;;;;0.10;0.10;;;;;;;33.06;25.92;99077.69;5049532;28;20052;-56
2021/07/20 10:53:28;;;;;;;0.00;0.00;;;;;;;33.00;25.88;99066.81;5049491;28;20517;-58
2021/07/20 10:56:10;;;;;;;0.10;0.10;;;;;;;33.03;25.93;99066.31;5049370;28;20076;-58
2021/07/20 10:58:50;;;;;;;0.00;0.00;;;;;;;33.03;25.81;99071.72;5031823;28;20128;-57
2021/07/20 11:01:31;;;;;;;2.05;1.05;;;;;;;33.01;25.82;99073.03;5047875;28;20049;-56
2021/07/20 11:04:15;;;;;;;0.03;0.03;;;;;;;32.98;25.89;99077.03;5031686;28;20057;-59
2021/07/20 11:06:41;;;;;;;0.10;0.10;;;;;;;32.96;25.79;99062.94;5031987;28;20496;-57
2021/07/20 11:09:12;;;;;;;0.10;0.10;;;;;;;32.97;25.83;99061.06;5020559;28;20052;-58
2021/07/20 11:11:44;;;;;;;0.10;0.10;;;;;;;32.87;25.61;99053.63;5012361;28;20053;-57
2021/07/20 11:14:10;;;;;;;0.10;0.10;;;;;;;32.88;25.49;99057.97;5011742;28;20092;-57
2021/07/20 11:16:38;;;;;;;0.00;0.00;;;;;;;32.81;25.56;99053.78;4963826;28;20045;-57
2021/07/20 11:19:05;;;;;;;0.00;0.00;;;;;;;32.85;25.29;99054.94;5011742;28;20365;-58
2021/07/20 11:21:31;;;;;;;0.10;0.10;;;;;;;32.82;25.50;99064.34;4979309;28;20057;-59
2021/07/20 11:23:57;;;;;;;0.10;0.10;;;;;;;32.77;25.01;99061.59;5011372;28;20056;-58
2021/07/20 11:26:24;;;;;;;0.00;0.00;;;;;;;32.81;24.71;99064.63;5012062;28;20528;-57
2021/07/20 11:28:50;;;;;;;0.03;0.03;;;;;;;32.75;25.12;99047.50;5029184;28;20045;-57
2021/07/20 11:31:34;;;;;;;0.10;0.10;;;;;;;32.76;25.09;99062.63;4995238;28;20080;-58
2021/07/20 11:34:38;;;;;;;0.00;0.00;;;;;;;32.74;25.14;99058.53;4996335;28;20053;-58
2021/07/20 11:37:10;;;;;;;0.00;0.00;;;;;;;32.74;24.69;99063.97;4999746;28;20057;-56
2021/07/20 11:40:00;;;;;;;0.10;0.10;;;;;;;32.70;24.81;99049.28;5013596;28;20122;-58
2021/07/20 11:42:43;;;;;;;0.03;0.03;;;;;;;32.74;24.85;99063.97;5011711;28;20073;-59
2021/07/20 11:45:09;;;;;;;0.00;0.00;;;;;;;32.71;24.52;99059.88;5011237;28;20072;-59
2021/07/20 11:47:44;;;;;;;0.17;0.17;;;;;;;32.70;24.66;99069.03;5029163;28;20053;-58
2021/07/20 11:50:34;;;;;;;0.03;0.03;;;;;;;32.70;24.60;99063.63;5028876;28;20426;-56
2021/07/20 11:53:06;;;;;;;0.00;0.00;;;;;;;32.71;24.47;99064.44;5014125;28;20530;-59
2021/07/20 11:55:53;;;;;;;0.00;0.00;;;;;;;32.70;24.64;99058.22;5033161;28;20053;-59
2021/07/20 11:58:37;;;;;;;0.00;0.00;;;;;;;32.68;24.13;99060.38;5032800;28;20519;-58
2021/07/20 12:01:21;;;;;;;0.15;0.15;;;;;;;32.66;24.07;99046.25;5033020;28;20137;-58